Ana Sayfa
METAR-TAF:

METAR-TAF

Havaalanları :

Gastonia Municipal Airport

Gastonia, Kuzey Carolina, Amerika Birleşik Devletleri

Enlem: 35-11-48N, Boylam: 081-09-21W, yükseklik: 243 m

Güncel hava durumu gözlemi

Rapor saat 19:35 UTC de 22 dakika önce yapıldı.
Rüzgar güney/güneybatıdan 3 kt
Sıcaklık 9°C
Nem 81%
Basınç 1017 hPa
Görüş mesafesi: 12.9 km
900 ft yükseklikte az bulutlu
3900 ft yükseklikte parçalı çok bulutlu
4600 ft yükseklikte çok bulutlu
hafif yağmur

METAR: KAKH 241935Z AUTO 21003KT 8SM -RA FEW009 BKN039 OVC046 09/06 A3002 RMK AO2 P0002 T00890061

Saat: 14:57 (19:57 UTC)


TAF: eksik

4.000'den fazla havaalanı için hava durumu gözlemleri ve tahminleri (METAR ve TAF raporları).

Kullanılabilir istasyonlar harita üzerinde sarı ve kırmızı noktalarla gösterilir.

İstasyonun adını görmek için fareyi noktanın üzerinde gezdirin.

Sonrasında hava gözlem ve tahminlerini görmek için tıklayın.

Haritayı değiştirmek için: yaklaştırmak için siyah artı işaretli yeşil düğmeye ve uzaklaştırmak için de eksi işaretli düğmeye hızla tıklayın; bitişik haritalar için yeşil okları kullanın.


METAR-TAF: